sensor_id;sensor_type;location;lat;lon;timestamp;temperature;humidity
43671;DHT22;29267;50.906;7.248;2023-05-24T00:01:07;8.60;99.90
43671;DHT22;29267;50.906;7.248;2023-05-24T00:03:33;8.50;99.90
43671;DHT22;29267;50.906;7.248;2023-05-24T00:06:04;8.40;99.90
43671;DHT22;29267;50.906;7.248;2023-05-24T00:08:32;8.40;99.90
43671;DHT22;29267;50.906;7.248;2023-05-24T00:10:57;8.40;99.90
43671;DHT22;29267;50.906;7.248;2023-05-24T00:13:23;8.30;99.90
43671;DHT22;29267;50.906;7.248;2023-05-24T00:15:49;8.30;99.90
43671;DHT22;29267;50.906;7.248;2023-05-24T00:18:14;8.30;99.90
43671;DHT22;29267;50.906;7.248;2023-05-24T00:20:42;8.30;99.90
43671;DHT22;29267;50.906;7.248;2023-05-24T00:23:08;8.20;99.90
43671;DHT22;29267;50.906;7.248;2023-05-24T00:25:34;8.20;99.90
43671;DHT22;29267;50.906;7.248;2023-05-24T00:28:00;8.20;99.90
43671;DHT22;29267;50.906;7.248;2023-05-24T00:30:25;8.20;99.90
43671;DHT22;29267;50.906;7.248;2023-05-24T00:32:51;8.20;99.90
43671;DHT22;29267;50.906;7.248;2023-05-24T00:35:17;8.10;99.90
43671;DHT22;29267;50.906;7.248;2023-05-24T00:37:42;8.10;99.90
43671;DHT22;29267;50.906;7.248;2023-05-24T00:40:10;8.00;99.90
43671;DHT22;29267;50.906;7.248;2023-05-24T00:42:36;8.00;99.90
43671;DHT22;29267;50.906;7.248;2023-05-24T00:45:03;7.90;99.90
43671;DHT22;29267;50.906;7.248;2023-05-24T00:47:28;7.80;99.90
43671;DHT22;29267;50.906;7.248;2023-05-24T00:49:54;7.80;99.90
43671;DHT22;29267;50.906;7.248;2023-05-24T00:52:20;7.80;99.90
43671;DHT22;29267;50.906;7.248;2023-05-24T00:54:46;7.80;99.90
43671;DHT22;29267;50.906;7.248;2023-05-24T00:57:12;7.70;99.90
43671;DHT22;29267;50.906;7.248;2023-05-24T00:59:40;7.70;99.90
43671;DHT22;29267;50.906;7.248;2023-05-24T01:02:07;7.70;99.90
43671;DHT22;29267;50.906;7.248;2023-05-24T01:04:32;7.60;99.90
43671;DHT22;29267;50.906;7.248;2023-05-24T01:15:31;7.50;99.90
43671;DHT22;29267;50.906;7.248;2023-05-24T01:18:06;7.50;99.90
43671;DHT22;29267;50.906;7.248;2023-05-24T01:20:36;7.50;99.90
43671;DHT22;29267;50.906;7.248;2023-05-24T01:28:30;7.30;99.90
43671;DHT22;29267;50.906;7.248;2023-05-24T01:30:59;7.30;99.90
43671;DHT22;29267;50.906;7.248;2023-05-24T01:33:25;7.20;99.90
43671;DHT22;29267;50.906;7.248;2023-05-24T01:35:50;7.10;99.90
43671;DHT22;29267;50.906;7.248;2023-05-24T01:38:16;7.00;99.90
43671;DHT22;29267;50.906;7.248;2023-05-24T01:40:42;7.00;99.90
43671;DHT22;29267;50.906;7.248;2023-05-24T01:43:38;6.90;99.90
43671;DHT22;29267;50.906;7.248;2023-05-24T01:46:07;6.80;99.90
43671;DHT22;29267;50.906;7.248;2023-05-24T01:51:18;6.70;99.90
43671;DHT22;29267;50.906;7.248;2023-05-24T01:53:45;6.60;99.90
43671;DHT22;29267;50.906;7.248;2023-05-24T01:56:14;6.50;99.90
43671;DHT22;29267;50.906;7.248;2023-05-24T01:58:43;6.40;99.90
43671;DHT22;29267;50.906;7.248;2023-05-24T02:01:10;6.30;99.90
43671;DHT22;29267;50.906;7.248;2023-05-24T02:03:37;6.20;99.90
43671;DHT22;29267;50.906;7.248;2023-05-24T02:06:03;6.20;99.90
43671;DHT22;29267;50.906;7.248;2023-05-24T02:08:29;6.10;99.90
43671;DHT22;29267;50.906;7.248;2023-05-24T02:10:55;6.10;99.90
43671;DHT22;29267;50.906;7.248;2023-05-24T02:13:20;6.00;99.90
43671;DHT22;29267;50.906;7.248;2023-05-24T02:15:46;6.10;99.90
43671;DHT22;29267;50.906;7.248;2023-05-24T02:18:12;6.10;99.90
43671;DHT22;29267;50.906;7.248;2023-05-24T02:20:38;6.00;99.90
43671;DHT22;29267;50.906;7.248;2023-05-24T02:23:05;5.90;99.90
43671;DHT22;29267;50.906;7.248;2023-05-24T02:25:31;5.90;99.90
43671;DHT22;29267;50.906;7.248;2023-05-24T02:28:00;5.90;99.90
43671;DHT22;29267;50.906;7.248;2023-05-24T02:30:26;5.80;99.90
43671;DHT22;29267;50.906;7.248;2023-05-24T02:32:52;5.80;99.90
43671;DHT22;29267;50.906;7.248;2023-05-24T02:35:18;5.70;99.90
43671;DHT22;29267;50.906;7.248;2023-05-24T02:37:43;5.70;99.90
43671;DHT22;29267;50.906;7.248;2023-05-24T02:40:09;5.60;99.90
43671;DHT22;29267;50.906;7.248;2023-05-24T02:42:35;5.60;99.90
43671;DHT22;29267;50.906;7.248;2023-05-24T02:45:01;5.60;99.90
43671;DHT22;29267;50.906;7.248;2023-05-24T02:47:26;5.50;99.90
43671;DHT22;29267;50.906;7.248;2023-05-24T02:49:53;5.50;99.90
43671;DHT22;29267;50.906;7.248;2023-05-24T02:52:19;5.50;99.90
43671;DHT22;29267;50.906;7.248;2023-05-24T02:54:48;5.50;99.90
43671;DHT22;29267;50.906;7.248;2023-05-24T02:57:14;5.50;99.90
43671;DHT22;29267;50.906;7.248;2023-05-24T02:59:41;5.50;99.90
43671;DHT22;29267;50.906;7.248;2023-05-24T03:02:07;5.50;99.90
43671;DHT22;29267;50.906;7.248;2023-05-24T03:04:32;5.50;99.90
43671;DHT22;29267;50.906;7.248;2023-05-24T03:06:58;5.50;99.90
43671;DHT22;29267;50.906;7.248;2023-05-24T03:09:23;5.50;99.90
43671;DHT22;29267;50.906;7.248;2023-05-24T03:11:49;5.50;99.90
43671;DHT22;29267;50.906;7.248;2023-05-24T03:14:16;5.50;99.90
43671;DHT22;29267;50.906;7.248;2023-05-24T03:16:41;5.40;99.90
43671;DHT22;29267;50.906;7.248;2023-05-24T03:19:07;5.40;99.90
43671;DHT22;29267;50.906;7.248;2023-05-24T03:21:32;5.40;99.90
43671;DHT22;29267;50.906;7.248;2023-05-24T03:23:58;5.40;99.90
43671;DHT22;29267;50.906;7.248;2023-05-24T03:26:24;5.30;99.90
43671;DHT22;29267;50.906;7.248;2023-05-24T03:28:51;5.40;99.90
43671;DHT22;29267;50.906;7.248;2023-05-24T03:31:18;5.30;99.90
43671;DHT22;29267;50.906;7.248;2023-05-24T03:33:45;5.30;99.90
43671;DHT22;29267;50.906;7.248;2023-05-24T03:36:10;5.30;99.90
43671;DHT22;29267;50.906;7.248;2023-05-24T03:38:36;5.30;99.90
43671;DHT22;29267;50.906;7.248;2023-05-24T03:41:01;5.30;99.90
43671;DHT22;29267;50.906;7.248;2023-05-24T03:43:28;5.30;99.90
43671;DHT22;29267;50.906;7.248;2023-05-24T03:45:53;5.30;99.90
43671;DHT22;29267;50.906;7.248;2023-05-24T03:48:19;5.30;99.90
43671;DHT22;29267;50.906;7.248;2023-05-24T03:50:45;5.30;99.90
43671;DHT22;29267;50.906;7.248;2023-05-24T03:53:11;5.40;99.90
43671;DHT22;29267;50.906;7.248;2023-05-24T03:55:37;5.40;99.90
43671;DHT22;29267;50.906;7.248;2023-05-24T03:58:02;5.50;99.90
43671;DHT22;29267;50.906;7.248;2023-05-24T04:00:28;5.50;99.90
43671;DHT22;29267;50.906;7.248;2023-05-24T04:02:54;5.60;99.90
43671;DHT22;29267;50.906;7.248;2023-05-24T04:05:20;5.60;99.90
43671;DHT22;29267;50.906;7.248;2023-05-24T04:07:46;5.70;99.90
43671;DHT22;29267;50.906;7.248;2023-05-24T04:10:12;5.80;99.90
43671;DHT22;29267;50.906;7.248;2023-05-24T04:12:40;5.80;99.90
43671;DHT22;29267;50.906;7.248;2023-05-24T04:15:06;5.90;99.90
43671;DHT22;29267;50.906;7.248;2023-05-24T04:17:31;6.00;99.90
43671;DHT22;29267;50.906;7.248;2023-05-24T04:19:59;6.00;99.90
43671;DHT22;29267;50.906;7.248;2023-05-24T04:22:25;6.10;99.90
43671;DHT22;29267;50.906;7.248;2023-05-24T04:24:51;6.20;99.90
43671;DHT22;29267;50.906;7.248;2023-05-24T04:27:16;6.30;99.90
43671;DHT22;29267;50.906;7.248;2023-05-24T04:29:43;6.50;99.90
43671;DHT22;29267;50.906;7.248;2023-05-24T04:32:14;6.90;99.90
43671;DHT22;29267;50.906;7.248;2023-05-24T04:34:40;7.50;99.90
43671;DHT22;29267;50.906;7.248;2023-05-24T04:37:07;8.30;99.90
43671;DHT22;29267;50.906;7.248;2023-05-24T04:39:33;9.00;99.90
43671;DHT22;29267;50.906;7.248;2023-05-24T04:41:58;9.80;99.90
43671;DHT22;29267;50.906;7.248;2023-05-24T04:44:25;10.70;99.90
43671;DHT22;29267;50.906;7.248;2023-05-24T04:46:50;11.50;99.90
43671;DHT22;29267;50.906;7.248;2023-05-24T04:49:16;12.00;99.90
43671;DHT22;29267;50.906;7.248;2023-05-24T04:51:42;12.40;99.90
43671;DHT22;29267;50.906;7.248;2023-05-24T04:54:07;13.20;99.90
43671;DHT22;29267;50.906;7.248;2023-05-24T04:56:34;13.80;97.50
43671;DHT22;29267;50.906;7.248;2023-05-24T04:59:00;13.60;97.70
43671;DHT22;29267;50.906;7.248;2023-05-24T05:01:26;13.70;97.10
43671;DHT22;29267;50.906;7.248;2023-05-24T05:03:52;13.90;96.90
43671;DHT22;29267;50.906;7.248;2023-05-24T05:06:17;14.10;96.00
43671;DHT22;29267;50.906;7.248;2023-05-24T05:08:43;14.50;94.80
43671;DHT22;29267;50.906;7.248;2023-05-24T05:11:08;15.20;93.90
43671;DHT22;29267;50.906;7.248;2023-05-24T05:13:34;15.30;93.70
43671;DHT22;29267;50.906;7.248;2023-05-24T05:16:00;15.70;92.10
43671;DHT22;29267;50.906;7.248;2023-05-24T05:18:26;15.80;91.90
43671;DHT22;29267;50.906;7.248;2023-05-24T05:20:51;16.00;90.70
43671;DHT22;29267;50.906;7.248;2023-05-24T05:23:17;16.30;90.20
43671;DHT22;29267;50.906;7.248;2023-05-24T05:25:43;16.60;90.90
43671;DHT22;29267;50.906;7.248;2023-05-24T05:28:08;17.00;89.90
43671;DHT22;29267;50.906;7.248;2023-05-24T05:30:34;17.40;89.20
43671;DHT22;29267;50.906;7.248;2023-05-24T05:32:59;17.60;87.10
43671;DHT22;29267;50.906;7.248;2023-05-24T05:35:25;17.50;85.40
43671;DHT22;29267;50.906;7.248;2023-05-24T05:37:51;17.90;84.30
43671;DHT22;29267;50.906;7.248;2023-05-24T05:40:16;18.30;84.10
43671;DHT22;29267;50.906;7.248;2023-05-24T05:42:42;18.70;83.80
43671;DHT22;29267;50.906;7.248;2023-05-24T05:45:08;19.40;82.70
43671;DHT22;29267;50.906;7.248;2023-05-24T05:47:33;19.20;80.40
43671;DHT22;29267;50.906;7.248;2023-05-24T05:49:59;19.60;78.90
43671;DHT22;29267;50.906;7.248;2023-05-24T05:52:25;20.00;76.70
43671;DHT22;29267;50.906;7.248;2023-05-24T05:54:50;20.20;75.40
43671;DHT22;29267;50.906;7.248;2023-05-24T05:57:16;20.10;75.50
43671;DHT22;29267;50.906;7.248;2023-05-24T05:59:43;21.00;75.10
43671;DHT22;29267;50.906;7.248;2023-05-24T06:02:09;21.50;72.90
43671;DHT22;29267;50.906;7.248;2023-05-24T06:04:37;21.80;73.20
43671;DHT22;29267;50.906;7.248;2023-05-24T06:07:03;21.60;72.80
43671;DHT22;29267;50.906;7.248;2023-05-24T06:09:29;21.70;72.20
43671;DHT22;29267;50.906;7.248;2023-05-24T06:11:54;21.60;70.30
43671;DHT22;29267;50.906;7.248;2023-05-24T06:14:20;21.70;71.20
43671;DHT22;29267;50.906;7.248;2023-05-24T06:16:46;21.00;70.60
43671;DHT22;29267;50.906;7.248;2023-05-24T06:19:12;20.60;73.20
43671;DHT22;29267;50.906;7.248;2023-05-24T06:21:38;21.40;71.50
43671;DHT22;29267;50.906;7.248;2023-05-24T06:24:06;22.10;71.20
43671;DHT22;29267;50.906;7.248;2023-05-24T06:26:35;22.60;67.20
43671;DHT22;29267;50.906;7.248;2023-05-24T06:29:01;22.10;69.30
43671;DHT22;29267;50.906;7.248;2023-05-24T06:31:27;21.50;68.50
43671;DHT22;29267;50.906;7.248;2023-05-24T06:33:52;22.00;68.60
43671;DHT22;29267;50.906;7.248;2023-05-24T06:36:18;21.90;68.80
43671;DHT22;29267;50.906;7.248;2023-05-24T06:38:43;21.30;69.80
43671;DHT22;29267;50.906;7.248;2023-05-24T06:41:09;21.00;70.30
43671;DHT22;29267;50.906;7.248;2023-05-24T06:43:34;21.30;69.90
43671;DHT22;29267;50.906;7.248;2023-05-24T06:46:00;22.10;69.00
43671;DHT22;29267;50.906;7.248;2023-05-24T06:48:26;22.90;67.70
43671;DHT22;29267;50.906;7.248;2023-05-24T06:50:51;23.20;66.30
43671;DHT22;29267;50.906;7.248;2023-05-24T06:53:17;22.90;66.80
43671;DHT22;29267;50.906;7.248;2023-05-24T06:55:42;22.60;66.10
43671;DHT22;29267;50.906;7.248;2023-05-24T06:58:08;23.30;65.80
43671;DHT22;29267;50.906;7.248;2023-05-24T07:00:41;22.70;66.50
43671;DHT22;29267;50.906;7.248;2023-05-24T07:03:08;22.80;66.30
43671;DHT22;29267;50.906;7.248;2023-05-24T07:05:34;23.70;64.10
43671;DHT22;29267;50.906;7.248;2023-05-24T07:08:00;23.00;62.90
43671;DHT22;29267;50.906;7.248;2023-05-24T07:10:26;21.00;65.50
43671;DHT22;29267;50.906;7.248;2023-05-24T07:12:51;19.20;69.20
43671;DHT22;29267;50.906;7.248;2023-05-24T07:15:17;17.60;72.70
43671;DHT22;29267;50.906;7.248;2023-05-24T07:17:42;16.80;76.20
43671;DHT22;29267;50.906;7.248;2023-05-24T07:20:09;15.90;78.20
43671;DHT22;29267;50.906;7.248;2023-05-24T07:22:35;15.90;80.30
43671;DHT22;29267;50.906;7.248;2023-05-24T07:25:01;16.00;81.70
43671;DHT22;29267;50.906;7.248;2023-05-24T07:27:27;15.90;79.50
43671;DHT22;29267;50.906;7.248;2023-05-24T07:29:52;15.50;81.10
43671;DHT22;29267;50.906;7.248;2023-05-24T07:32:18;15.60;85.70
43671;DHT22;29267;50.906;7.248;2023-05-24T07:34:44;16.50;80.80
43671;DHT22;29267;50.906;7.248;2023-05-24T07:37:10;18.10;77.10
43671;DHT22;29267;50.906;7.248;2023-05-24T07:39:36;18.60;74.90
43671;DHT22;29267;50.906;7.248;2023-05-24T07:42:02;18.80;72.60
43671;DHT22;29267;50.906;7.248;2023-05-24T07:44:28;18.30;74.70
43671;DHT22;29267;50.906;7.248;2023-05-24T07:46:54;18.40;74.20
43671;DHT22;29267;50.906;7.248;2023-05-24T07:49:20;18.80;73.00
43671;DHT22;29267;50.906;7.248;2023-05-24T07:51:46;19.10;72.00
43671;DHT22;29267;50.906;7.248;2023-05-24T07:54:13;18.60;74.30
43671;DHT22;29267;50.906;7.248;2023-05-24T07:56:40;18.10;72.60
43671;DHT22;29267;50.906;7.248;2023-05-24T07:59:06;18.70;71.80
43671;DHT22;29267;50.906;7.248;2023-05-24T08:01:33;18.50;71.80
43671;DHT22;29267;50.906;7.248;2023-05-24T08:04:02;17.70;74.70
43671;DHT22;29267;50.906;7.248;2023-05-24T08:06:29;17.30;77.30
43671;DHT22;29267;50.906;7.248;2023-05-24T08:08:56;16.70;76.90
43671;DHT22;29267;50.906;7.248;2023-05-24T08:11:21;16.10;79.40
43671;DHT22;29267;50.906;7.248;2023-05-24T08:13:47;16.20;81.80
43671;DHT22;29267;50.906;7.248;2023-05-24T08:16:13;16.90;78.10
43671;DHT22;29267;50.906;7.248;2023-05-24T08:18:38;17.50;78.00
43671;DHT22;29267;50.906;7.248;2023-05-24T08:21:04;19.20;75.60
43671;DHT22;29267;50.906;7.248;2023-05-24T08:23:30;19.40;71.60
43671;DHT22;29267;50.906;7.248;2023-05-24T08:25:56;19.00;72.90
43671;DHT22;29267;50.906;7.248;2023-05-24T08:28:22;19.10;72.40
43671;DHT22;29267;50.906;7.248;2023-05-24T08:30:48;18.60;72.40
43671;DHT22;29267;50.906;7.248;2023-05-24T08:33:13;18.80;72.10
43671;DHT22;29267;50.906;7.248;2023-05-24T08:35:39;18.50;71.90
43671;DHT22;29267;50.906;7.248;2023-05-24T08:38:05;18.30;73.60
43671;DHT22;29267;50.906;7.248;2023-05-24T08:40:31;18.00;73.50
43671;DHT22;29267;50.906;7.248;2023-05-24T08:42:59;17.30;75.40
43671;DHT22;29267;50.906;7.248;2023-05-24T08:45:29;16.80;76.10
43671;DHT22;29267;50.906;7.248;2023-05-24T08:47:56;17.00;76.80
43671;DHT22;29267;50.906;7.248;2023-05-24T08:50:25;16.90;74.60
43671;DHT22;29267;50.906;7.248;2023-05-24T08:52:51;16.40;76.00
43671;DHT22;29267;50.906;7.248;2023-05-24T08:55:18;16.60;76.10
43671;DHT22;29267;50.906;7.248;2023-05-24T08:57:44;16.70;78.00
43671;DHT22;29267;50.906;7.248;2023-05-24T09:00:11;16.80;76.40
43671;DHT22;29267;50.906;7.248;2023-05-24T09:02:39;16.40;77.30
43671;DHT22;29267;50.906;7.248;2023-05-24T09:05:09;16.20;77.10
43671;DHT22;29267;50.906;7.248;2023-05-24T09:07:36;16.50;78.60
43671;DHT22;29267;50.906;7.248;2023-05-24T09:10:07;16.40;80.60
43671;DHT22;29267;50.906;7.248;2023-05-24T09:12:34;16.50;77.20
43671;DHT22;29267;50.906;7.248;2023-05-24T09:15:01;17.00;75.70
43671;DHT22;29267;50.906;7.248;2023-05-24T09:17:29;17.50;75.60
43671;DHT22;29267;50.906;7.248;2023-05-24T09:19:56;17.80;73.00
43671;DHT22;29267;50.906;7.248;2023-05-24T09:22:26;17.80;72.50
43671;DHT22;29267;50.906;7.248;2023-05-24T09:24:56;17.90;72.90
43671;DHT22;29267;50.906;7.248;2023-05-24T09:27:22;17.20;74.70
43671;DHT22;29267;50.906;7.248;2023-05-24T09:29:48;17.40;73.80
43671;DHT22;29267;50.906;7.248;2023-05-24T09:32:16;18.20;73.00
43671;DHT22;29267;50.906;7.248;2023-05-24T09:34:44;19.30;70.10
43671;DHT22;29267;50.906;7.248;2023-05-24T09:37:15;19.70;69.50
43671;DHT22;29267;50.906;7.248;2023-05-24T09:39:43;20.10;68.20
43671;DHT22;29267;50.906;7.248;2023-05-24T09:42:14;19.60;67.80
43671;DHT22;29267;50.906;7.248;2023-05-24T09:44:42;18.60;70.20
43671;DHT22;29267;50.906;7.248;2023-05-24T09:47:07;17.70;73.90
43671;DHT22;29267;50.906;7.248;2023-05-24T09:49:36;16.90;76.70
43671;DHT22;29267;50.906;7.248;2023-05-24T09:52:02;17.00;78.30
43671;DHT22;29267;50.906;7.248;2023-05-24T09:54:27;17.20;76.20
43671;DHT22;29267;50.906;7.248;2023-05-24T09:56:53;17.40;77.90
43671;DHT22;29267;50.906;7.248;2023-05-24T09:59:19;17.70;76.20
43671;DHT22;29267;50.906;7.248;2023-05-24T10:01:45;17.70;75.90
43671;DHT22;29267;50.906;7.248;2023-05-24T10:04:11;17.50;74.20
43671;DHT22;29267;50.906;7.248;2023-05-24T10:06:39;17.40;76.80
43671;DHT22;29267;50.906;7.248;2023-05-24T10:09:07;17.10;75.80
43671;DHT22;29267;50.906;7.248;2023-05-24T10:11:37;17.00;77.60
43671;DHT22;29267;50.906;7.248;2023-05-24T10:14:08;16.70;78.80
43671;DHT22;29267;50.906;7.248;2023-05-24T10:16:35;16.90;77.20
43671;DHT22;29267;50.906;7.248;2023-05-24T10:19:02;17.00;75.00
43671;DHT22;29267;50.906;7.248;2023-05-24T10:21:30;16.80;75.50
43671;DHT22;29267;50.906;7.248;2023-05-24T10:23:58;16.90;76.40
43671;DHT22;29267;50.906;7.248;2023-05-24T10:26:30;17.00;75.80
43671;DHT22;29267;50.906;7.248;2023-05-24T10:29:03;17.50;77.40
43671;DHT22;29267;50.906;7.248;2023-05-24T10:31:33;17.70;74.00
43671;DHT22;29267;50.906;7.248;2023-05-24T10:34:02;18.10;73.40
43671;DHT22;29267;50.906;7.248;2023-05-24T10:36:30;18.00;71.90
43671;DHT22;29267;50.906;7.248;2023-05-24T10:38:56;17.20;72.90
43671;DHT22;29267;50.906;7.248;2023-05-24T10:41:25;17.00;75.60
43671;DHT22;29267;50.906;7.248;2023-05-24T10:43:52;16.90;76.60
43671;DHT22;29267;50.906;7.248;2023-05-24T10:46:19;16.60;75.80
43671;DHT22;29267;50.906;7.248;2023-05-24T10:48:58;16.70;75.60
43671;DHT22;29267;50.906;7.248;2023-05-24T10:51:38;16.40;77.30
43671;DHT22;29267;50.906;7.248;2023-05-24T10:54:14;16.20;81.10
43671;DHT22;29267;50.906;7.248;2023-05-24T10:56:45;16.40;79.10
43671;DHT22;29267;50.906;7.248;2023-05-24T10:59:35;16.50;78.10
43671;DHT22;29267;50.906;7.248;2023-05-24T11:02:07;16.60;78.50
43671;DHT22;29267;50.906;7.248;2023-05-24T11:04:46;16.70;77.00
43671;DHT22;29267;50.906;7.248;2023-05-24T11:07:14;16.90;75.60
43671;DHT22;29267;50.906;7.248;2023-05-24T11:09:41;17.40;78.10
43671;DHT22;29267;50.906;7.248;2023-05-24T11:12:17;17.80;75.70
43671;DHT22;29267;50.906;7.248;2023-05-24T11:14:47;18.20;75.70
43671;DHT22;29267;50.906;7.248;2023-05-24T11:17:14;18.30;72.70
43671;DHT22;29267;50.906;7.248;2023-05-24T11:22:14;17.90;73.00
43671;DHT22;29267;50.906;7.248;2023-05-24T11:24:40;17.70;77.10
43671;DHT22;29267;50.906;7.248;2023-05-24T11:27:10;17.40;77.40
43671;DHT22;29267;50.906;7.248;2023-05-24T11:29:45;16.80;76.60
43671;DHT22;29267;50.906;7.248;2023-05-24T11:32:20;16.30;79.00
43671;DHT22;29267;50.906;7.248;2023-05-24T11:34:48;15.90;81.20
43671;DHT22;29267;50.906;7.248;2023-05-24T11:37:14;15.70;80.00
43671;DHT22;29267;50.906;7.248;2023-05-24T11:39:40;15.60;82.30
43671;DHT22;29267;50.906;7.248;2023-05-24T11:42:07;15.70;81.20
43671;DHT22;29267;50.906;7.248;2023-05-24T11:44:33;15.70;81.10
43671;DHT22;29267;50.906;7.248;2023-05-24T11:47:05;15.90;81.20
43671;DHT22;29267;50.906;7.248;2023-05-24T11:49:30;16.40;78.70
43671;DHT22;29267;50.906;7.248;2023-05-24T11:51:57;16.70;78.10
43671;DHT22;29267;50.906;7.248;2023-05-24T11:54:24;16.80;76.80
43671;DHT22;29267;50.906;7.248;2023-05-24T11:56:52;16.80;78.20
43671;DHT22;29267;50.906;7.248;2023-05-24T11:59:25;17.10;76.30
43671;DHT22;29267;50.906;7.248;2023-05-24T12:01:57;17.00;76.90
43671;DHT22;29267;50.906;7.248;2023-05-24T12:04:24;17.20;77.20
43671;DHT22;29267;50.906;7.248;2023-05-24T12:06:50;17.40;76.20
43671;DHT22;29267;50.906;7.248;2023-05-24T12:09:15;17.10;77.30
43671;DHT22;29267;50.906;7.248;2023-05-24T12:11:46;17.20;78.50
43671;DHT22;29267;50.906;7.248;2023-05-24T12:14:17;17.30;76.40
43671;DHT22;29267;50.906;7.248;2023-05-24T12:16:44;17.80;75.10
43671;DHT22;29267;50.906;7.248;2023-05-24T12:19:20;17.80;75.20
43671;DHT22;29267;50.906;7.248;2023-05-24T12:21:46;17.90;73.60
43671;DHT22;29267;50.906;7.248;2023-05-24T12:24:15;17.50;73.00
43671;DHT22;29267;50.906;7.248;2023-05-24T12:26:47;17.10;73.10
43671;DHT22;29267;50.906;7.248;2023-05-24T12:29:13;17.00;74.70
43671;DHT22;29267;50.906;7.248;2023-05-24T12:31:40;16.70;75.70
43671;DHT22;29267;50.906;7.248;2023-05-24T12:34:10;16.70;76.70
43671;DHT22;29267;50.906;7.248;2023-05-24T12:36:36;16.40;78.00
43671;DHT22;29267;50.906;7.248;2023-05-24T12:39:18;16.20;79.20
43671;DHT22;29267;50.906;7.248;2023-05-24T12:41:44;16.40;79.10
43671;DHT22;29267;50.906;7.248;2023-05-24T12:44:10;16.30;78.10
43671;DHT22;29267;50.906;7.248;2023-05-24T12:46:36;16.30;79.20
43671;DHT22;29267;50.906;7.248;2023-05-24T12:49:02;16.50;78.40
43671;DHT22;29267;50.906;7.248;2023-05-24T12:51:29;16.60;80.20
43671;DHT22;29267;50.906;7.248;2023-05-24T12:53:55;16.70;78.30
43671;DHT22;29267;50.906;7.248;2023-05-24T12:56:21;16.80;78.70
43671;DHT22;29267;50.906;7.248;2023-05-24T12:58:49;17.30;79.30
43671;DHT22;29267;50.906;7.248;2023-05-24T13:01:14;17.70;79.30
43671;DHT22;29267;50.906;7.248;2023-05-24T13:03:40;17.90;74.70
43671;DHT22;29267;50.906;7.248;2023-05-24T13:06:06;17.90;75.50
43671;DHT22;29267;50.906;7.248;2023-05-24T13:08:31;17.90;74.70
43671;DHT22;29267;50.906;7.248;2023-05-24T13:10:58;17.80;76.20
43671;DHT22;29267;50.906;7.248;2023-05-24T13:13:23;17.60;74.00
43671;DHT22;29267;50.906;7.248;2023-05-24T13:15:51;17.10;76.80
43671;DHT22;29267;50.906;7.248;2023-05-24T13:18:16;16.90;77.10
43671;DHT22;29267;50.906;7.248;2023-05-24T13:20:42;16.70;78.40
43671;DHT22;29267;50.906;7.248;2023-05-24T13:23:08;16.60;79.40
43671;DHT22;29267;50.906;7.248;2023-05-24T13:25:33;17.00;77.50
43671;DHT22;29267;50.906;7.248;2023-05-24T13:27:59;16.90;77.10
43671;DHT22;29267;50.906;7.248;2023-05-24T13:30:24;16.80;78.50
43671;DHT22;29267;50.906;7.248;2023-05-24T13:32:55;16.70;79.10
43671;DHT22;29267;50.906;7.248;2023-05-24T13:35:23;16.70;79.30
43671;DHT22;29267;50.906;7.248;2023-05-24T13:37:48;16.70;78.60
43671;DHT22;29267;50.906;7.248;2023-05-24T13:40:15;16.80;78.00
43671;DHT22;29267;50.906;7.248;2023-05-24T13:42:41;16.70;79.30
43671;DHT22;29267;50.906;7.248;2023-05-24T13:45:07;16.60;80.00
43671;DHT22;29267;50.906;7.248;2023-05-24T13:47:33;16.70;78.80
43671;DHT22;29267;50.906;7.248;2023-05-24T13:49:58;16.60;78.60
43671;DHT22;29267;50.906;7.248;2023-05-24T13:52:24;16.60;79.20
43671;DHT22;29267;50.906;7.248;2023-05-24T13:54:50;16.50;78.60
43671;DHT22;29267;50.906;7.248;2023-05-24T13:57:16;16.50;78.90
43671;DHT22;29267;50.906;7.248;2023-05-24T13:59:42;16.60;78.70
43671;DHT22;29267;50.906;7.248;2023-05-24T14:02:07;16.50;79.70
43671;DHT22;29267;50.906;7.248;2023-05-24T14:04:33;16.50;79.60
43671;DHT22;29267;50.906;7.248;2023-05-24T14:06:59;16.60;79.30
43671;DHT22;29267;50.906;7.248;2023-05-24T14:09:24;16.80;79.60
43671;DHT22;29267;50.906;7.248;2023-05-24T14:11:51;16.80;79.70
43671;DHT22;29267;50.906;7.248;2023-05-24T14:14:16;16.80;77.80
43671;DHT22;29267;50.906;7.248;2023-05-24T14:16:42;16.80;79.20
43671;DHT22;29267;50.906;7.248;2023-05-24T14:19:07;16.60;79.20
43671;DHT22;29267;50.906;7.248;2023-05-24T14:21:33;16.40;79.20
43671;DHT22;29267;50.906;7.248;2023-05-24T14:23:59;16.30;80.20
43671;DHT22;29267;50.906;7.248;2023-05-24T14:26:25;16.40;81.10
43671;DHT22;29267;50.906;7.248;2023-05-24T14:28:51;16.40;82.60
43671;DHT22;29267;50.906;7.248;2023-05-24T14:31:17;16.60;81.20
43671;DHT22;29267;50.906;7.248;2023-05-24T14:33:42;16.80;80.90
43671;DHT22;29267;50.906;7.248;2023-05-24T14:36:08;16.90;79.50
43671;DHT22;29267;50.906;7.248;2023-05-24T14:38:34;16.80;80.40
43671;DHT22;29267;50.906;7.248;2023-05-24T14:40:59;16.90;77.40
43671;DHT22;29267;50.906;7.248;2023-05-24T14:43:26;16.60;79.00
43671;DHT22;29267;50.906;7.248;2023-05-24T14:45:51;16.60;79.60
43671;DHT22;29267;50.906;7.248;2023-05-24T14:48:17;16.60;79.00
43671;DHT22;29267;50.906;7.248;2023-05-24T14:50:42;16.80;80.30
43671;DHT22;29267;50.906;7.248;2023-05-24T14:53:08;16.90;78.10
43671;DHT22;29267;50.906;7.248;2023-05-24T14:55:37;16.80;80.70
43671;DHT22;29267;50.906;7.248;2023-05-24T14:58:03;16.90;84.10
43671;DHT22;29267;50.906;7.248;2023-05-24T15:00:29;16.90;82.00
43671;DHT22;29267;50.906;7.248;2023-05-24T15:02:55;17.20;80.70
43671;DHT22;29267;50.906;7.248;2023-05-24T15:05:20;17.30;79.40
43671;DHT22;29267;50.906;7.248;2023-05-24T15:07:46;17.60;79.20
43671;DHT22;29267;50.906;7.248;2023-05-24T15:10:11;17.50;79.30
43671;DHT22;29267;50.906;7.248;2023-05-24T15:12:37;17.40;81.30
43671;DHT22;29267;50.906;7.248;2023-05-24T15:15:03;17.30;78.10
43671;DHT22;29267;50.906;7.248;2023-05-24T15:17:30;17.10;78.40
43671;DHT22;29267;50.906;7.248;2023-05-24T15:19:56;16.60;81.80
43671;DHT22;29267;50.906;7.248;2023-05-24T15:22:24;16.50;81.90
43671;DHT22;29267;50.906;7.248;2023-05-24T15:24:51;16.60;82.20
43671;DHT22;29267;50.906;7.248;2023-05-24T15:27:16;16.60;82.80
43671;DHT22;29267;50.906;7.248;2023-05-24T15:29:42;16.70;84.10
43671;DHT22;29267;50.906;7.248;2023-05-24T15:32:07;16.80;82.80
43671;DHT22;29267;50.906;7.248;2023-05-24T15:34:33;16.60;81.70
43671;DHT22;29267;50.906;7.248;2023-05-24T15:36:58;16.40;83.00
43671;DHT22;29267;50.906;7.248;2023-05-24T15:39:24;16.30;83.30
43671;DHT22;29267;50.906;7.248;2023-05-24T15:41:49;16.30;82.60
43671;DHT22;29267;50.906;7.248;2023-05-24T15:44:15;16.20;84.20
43671;DHT22;29267;50.906;7.248;2023-05-24T15:46:41;16.10;84.20
43671;DHT22;29267;50.906;7.248;2023-05-24T15:49:07;16.00;83.90
43671;DHT22;29267;50.906;7.248;2023-05-24T15:51:33;15.90;84.70